createdAt,value
2023-07-09T00:01:59.429Z,1.45
2023-07-09T00:04:29.525Z,1.70
2023-07-09T00:07:01.346Z,1.52
2023-07-09T00:09:29.328Z,1.40
2023-07-09T00:12:00.439Z,1.77
2023-07-09T00:14:29.295Z,1.60
2023-07-09T00:16:57.555Z,2.03
2023-07-09T00:19:26.111Z,2.08
2023-07-09T00:21:55.380Z,1.90
2023-07-09T00:24:24.872Z,1.75
2023-07-09T00:26:53.407Z,1.60
2023-07-09T00:29:23.036Z,1.58
2023-07-09T00:31:51.216Z,1.48
2023-07-09T00:34:22.749Z,1.73
2023-07-09T00:36:51.925Z,1.73
2023-07-09T00:39:21.470Z,1.63
2023-07-09T00:41:50.889Z,1.70
2023-07-09T00:44:31.227Z,1.52
2023-07-09T00:47:36.476Z,1.33
2023-07-09T00:50:14.432Z,1.73
2023-07-09T00:52:51.222Z,1.38
2023-07-09T00:55:24.806Z,2.00
2023-07-09T00:57:58.438Z,1.70
2023-07-09T01:00:43.746Z,1.85
2023-07-09T01:03:13.707Z,1.38
2023-07-09T01:05:42.718Z,1.63
2023-07-09T01:08:11.806Z,1.70
2023-07-09T01:10:42.299Z,1.70
2023-07-09T01:13:10.584Z,1.58
2023-07-09T01:15:42.261Z,1.20
2023-07-09T01:18:11.736Z,1.52
2023-07-09T01:20:41.493Z,1.58
2023-07-09T01:23:11.135Z,1.42
2023-07-09T01:25:44.455Z,1.25
2023-07-09T01:28:13.038Z,1.70
2023-07-09T01:30:42.854Z,1.70
2023-07-09T01:33:11.614Z,1.88
2023-07-09T01:35:43.809Z,1.60
2023-07-09T01:38:13.767Z,1.50
2023-07-09T01:40:41.865Z,1.60
2023-07-09T01:43:09.912Z,1.50
2023-07-09T01:45:38.971Z,1.58
2023-07-09T01:48:07.874Z,1.50
2023-07-09T01:50:36.422Z,1.40
2023-07-09T01:53:04.563Z,1.30
2023-07-09T01:55:34.899Z,1.50
2023-07-09T01:58:06.566Z,1.50
2023-07-09T02:00:37.181Z,1.40
2023-07-09T02:03:06.140Z,1.30
2023-07-09T02:05:37.840Z,1.73
2023-07-09T02:08:06.625Z,1.40
2023-07-09T02:10:41.436Z,1.35
2023-07-09T02:13:09.583Z,1.52
2023-07-09T02:15:37.701Z,1.30
2023-07-09T02:18:06.466Z,1.42
2023-07-09T02:20:35.824Z,1.83
2023-07-09T02:23:04.588Z,1.60
2023-07-09T02:25:32.403Z,1.70
2023-07-09T02:28:02.391Z,1.60
2023-07-09T02:30:32.745Z,1.50
2023-07-09T02:33:00.681Z,1.20
2023-07-09T02:35:29.568Z,1.48
2023-07-09T02:37:57.613Z,1.40
2023-07-09T02:40:25.525Z,1.52
2023-07-09T02:42:53.700Z,1.98
2023-07-09T02:45:23.545Z,1.60
2023-07-09T02:47:51.663Z,1.60
2023-07-09T02:50:19.777Z,1.33
2023-07-09T02:52:47.719Z,1.60
2023-07-09T02:55:15.624Z,1.60
2023-07-09T02:57:43.969Z,1.45
2023-07-09T03:00:13.785Z,1.48
2023-07-09T03:02:45.753Z,1.85
2023-07-09T03:05:13.865Z,1.33
2023-07-09T03:07:42.082Z,1.60
2023-07-09T03:10:12.235Z,1.73
2023-07-09T03:12:41.388Z,1.50
2023-07-09T03:15:10.120Z,2.10
2023-07-09T03:17:38.074Z,1.60
2023-07-09T03:20:12.178Z,1.50
2023-07-09T03:22:40.642Z,1.50
2023-07-09T03:25:09.075Z,1.88
2023-07-09T03:27:37.346Z,1.67
2023-07-09T03:30:06.178Z,1.30
2023-07-09T03:32:34.106Z,1.50
2023-07-09T03:35:02.296Z,1.52
2023-07-09T03:37:32.153Z,1.38
2023-07-09T03:40:00.197Z,1.77
2023-07-09T03:42:28.441Z,1.48
2023-07-09T03:44:56.904Z,1.88
2023-07-09T03:47:25.248Z,1.60
2023-07-09T03:49:53.458Z,1.38
2023-07-09T03:52:21.392Z,1.30
2023-07-09T03:54:51.061Z,1.60
2023-07-09T03:57:19.349Z,1.45
2023-07-09T03:59:47.219Z,1.80
2023-07-09T04:02:15.134Z,1.67
2023-07-09T04:04:42.962Z,1.40
2023-07-09T04:07:14.031Z,1.60
2023-07-09T04:09:42.050Z,1.30
2023-07-09T04:12:12.119Z,1.33
2023-07-09T04:14:41.516Z,1.50
2023-07-09T04:17:09.699Z,1.48
2023-07-09T04:19:37.823Z,2.05
2023-07-09T04:22:08.992Z,1.58
2023-07-09T04:24:37.073Z,1.60
2023-07-09T04:27:05.422Z,1.60
2023-07-09T04:29:36.597Z,1.90
2023-07-09T04:32:05.329Z,1.33
2023-07-09T04:34:33.570Z,1.23
2023-07-09T04:37:01.500Z,1.55
2023-07-09T04:39:29.794Z,1.20
2023-07-09T04:41:57.755Z,1.50
2023-07-09T04:44:25.996Z,1.50
2023-07-09T04:46:55.112Z,1.33
2023-07-09T04:49:22.988Z,1.60
2023-07-09T04:51:50.731Z,1.52
2023-07-09T04:54:18.527Z,1.48
2023-07-09T04:56:46.400Z,1.23
2023-07-09T04:59:14.522Z,1.85
2023-07-09T05:01:42.865Z,1.30
2023-07-09T05:04:12.278Z,1.60
2023-07-09T05:06:40.391Z,1.80
2023-07-09T05:09:08.617Z,1.63
2023-07-09T05:11:38.084Z,1.55
2023-07-09T05:14:06.223Z,1.20
2023-07-09T05:16:34.114Z,1.45
2023-07-09T05:19:01.898Z,1.83
2023-07-09T05:21:31.049Z,1.42
2023-07-09T05:23:58.850Z,1.70
2023-07-09T05:26:26.683Z,1.50
2023-07-09T05:28:54.667Z,1.40
2023-07-09T05:31:22.720Z,1.50
2023-07-09T05:33:51.201Z,2.13
2023-07-09T05:36:21.243Z,1.65
2023-07-09T05:38:52.240Z,1.40
2023-07-09T05:41:20.128Z,1.23
2023-07-09T05:43:48.290Z,1.60
2023-07-09T05:46:16.277Z,1.33
2023-07-09T05:48:44.111Z,1.35
2023-07-09T05:51:11.924Z,1.48
2023-07-09T05:53:40.472Z,3.40
2023-07-09T05:56:09.943Z,1.58
2023-07-09T05:58:37.734Z,2.00
2023-07-09T06:01:05.535Z,1.60
2023-07-09T06:03:35.060Z,1.60
2023-07-09T06:06:03.444Z,1.40
2023-07-09T06:08:31.510Z,1.80
2023-07-09T06:11:03.050Z,1.67
2023-07-09T06:13:33.578Z,1.67
2023-07-09T06:16:02.919Z,1.70
2023-07-09T06:18:31.791Z,1.52
2023-07-09T06:21:02.739Z,1.63
2023-07-09T06:23:32.161Z,1.60
2023-07-09T06:26:00.900Z,1.70
2023-07-09T06:28:31.079Z,1.55
2023-07-09T06:31:00.582Z,1.48
2023-07-09T06:33:29.185Z,1.90
2023-07-09T06:35:59.375Z,2.00
2023-07-09T06:38:27.537Z,1.65
2023-07-09T06:40:55.690Z,1.80
2023-07-09T06:43:23.827Z,1.70
2023-07-09T06:45:54.010Z,1.75
2023-07-09T06:48:23.834Z,1.60
2023-07-09T06:50:51.849Z,1.52
2023-07-09T06:53:19.643Z,1.65
2023-07-09T06:55:48.449Z,1.80
2023-07-09T06:58:17.138Z,2.20
2023-07-09T07:00:45.523Z,1.92
2023-07-09T07:03:13.861Z,2.00
2023-07-09T07:05:46.626Z,1.58
2023-07-09T07:08:17.106Z,1.50
2023-07-09T07:10:45.146Z,1.85
2023-07-09T07:13:13.603Z,1.70
2023-07-09T07:15:41.891Z,1.70
2023-07-09T07:18:10.241Z,1.52
2023-07-09T07:20:38.342Z,2.10
2023-07-09T07:23:07.609Z,1.92
2023-07-09T07:25:35.654Z,1.88
2023-07-09T07:28:03.432Z,1.98
2023-07-09T07:30:31.306Z,1.60
2023-07-09T07:32:59.274Z,1.88
2023-07-09T07:35:27.985Z,1.95
2023-07-09T07:37:55.895Z,1.63
2023-07-09T07:40:25.269Z,2.08
2023-07-09T07:42:53.110Z,1.88
2023-07-09T07:45:21.291Z,1.95
2023-07-09T07:47:49.125Z,1.83
2023-07-09T07:50:17.057Z,1.88
2023-07-09T07:52:44.833Z,2.08
2023-07-09T07:55:16.961Z,2.20
2023-07-09T07:57:48.338Z,2.15
2023-07-09T08:00:17.592Z,1.80
2023-07-09T08:02:45.510Z,2.08
2023-07-09T08:05:13.397Z,2.08
2023-07-09T08:07:41.167Z,2.45
2023-07-09T08:10:09.965Z,2.00
2023-07-09T08:12:37.803Z,1.95
2023-07-09T08:15:08.424Z,2.40
2023-07-09T08:17:36.444Z,2.40
2023-07-09T08:20:04.531Z,2.03
2023-07-09T08:22:32.512Z,2.00
2023-07-09T08:25:00.730Z,2.28
2023-07-09T08:27:28.717Z,2.15
2023-07-09T08:29:56.660Z,2.65
2023-07-09T08:32:25.988Z,2.05
2023-07-09T08:35:25.555Z,2.35
2023-07-09T08:37:41.679Z,1.90
2023-07-09T08:40:15.923Z,2.35
2023-07-09T08:42:59.286Z,1.95
2023-07-09T08:45:36.286Z,2.22
2023-07-09T08:48:08.592Z,2.53
2023-07-09T08:50:40.455Z,2.42
2023-07-09T08:53:16.129Z,2.20
2023-07-09T08:55:46.230Z,2.17
2023-07-09T08:58:19.552Z,2.20
2023-07-09T09:00:54.013Z,2.35
2023-07-09T09:03:32.862Z,2.47
2023-07-09T09:06:01.330Z,2.17
2023-07-09T09:08:40.695Z,1.98
2023-07-09T09:11:16.604Z,2.30
2023-07-09T09:13:46.098Z,2.30
2023-07-09T09:16:25.429Z,2.63
2023-07-09T09:18:59.837Z,2.13
2023-07-09T09:21:31.756Z,2.60
2023-07-09T09:24:03.953Z,2.65
2023-07-09T09:26:36.978Z,2.53
2023-07-09T09:29:13.210Z,2.65
2023-07-09T09:31:42.336Z,2.30
2023-07-09T09:34:22.195Z,2.50
2023-07-09T09:36:50.274Z,2.53
2023-07-09T09:39:22.227Z,2.60
2023-07-09T09:41:50.179Z,2.58
2023-07-09T09:44:21.071Z,2.28
2023-07-09T09:46:50.486Z,2.50
2023-07-09T09:49:22.074Z,2.67
2023-07-09T09:51:50.763Z,2.33
2023-07-09T09:54:22.600Z,2.85
2023-07-09T09:56:51.974Z,2.72
2023-07-09T09:59:22.948Z,2.50
2023-07-09T10:01:59.650Z,2.53
2023-07-09T10:04:29.993Z,2.40
2023-07-09T10:07:00.310Z,2.42
2023-07-09T10:09:40.692Z,2.47
2023-07-09T10:12:16.630Z,2.63
2023-07-09T10:14:50.134Z,2.60
2023-07-09T10:17:24.247Z,3.08
2023-07-09T10:19:59.161Z,2.40
2023-07-09T10:22:42.964Z,2.63
2023-07-09T10:25:21.685Z,2.80
2023-07-09T10:28:05.158Z,2.83
2023-07-09T10:30:45.276Z,2.50
2023-07-09T10:33:18.344Z,2.47
2023-07-09T10:35:56.432Z,2.50
2023-07-09T10:38:37.828Z,2.67
2023-07-09T10:43:49.505Z,2.35
2023-07-09T10:46:22.951Z,2.75
2023-07-09T10:48:54.047Z,2.88
2023-07-09T10:51:29.088Z,2.80
2023-07-09T10:54:01.968Z,2.70
2023-07-09T10:56:36.727Z,2.53
2023-07-09T10:59:15.356Z,2.70
2023-07-09T11:01:49.505Z,2.33
2023-07-09T11:04:26.643Z,2.60
2023-07-09T11:07:01.244Z,2.20
2023-07-09T11:09:34.731Z,2.45
2023-07-09T11:12:08.350Z,2.65
2023-07-09T11:14:42.634Z,2.72
2023-07-09T11:17:16.830Z,2.55
2023-07-09T11:19:46.188Z,2.83
2023-07-09T11:22:22.680Z,3.10
2023-07-09T11:24:52.656Z,2.47
2023-07-09T11:27:24.107Z,2.67
2023-07-09T11:30:00.668Z,2.65
2023-07-09T11:32:29.998Z,2.63
2023-07-09T11:35:09.268Z,2.92
2023-07-09T11:37:47.449Z,2.70
2023-07-09T11:40:22.634Z,3.15
2023-07-09T11:42:56.319Z,2.70
2023-07-09T11:45:30.073Z,2.80
2023-07-09T11:48:05.927Z,3.00
2023-07-09T11:50:41.275Z,2.72
2023-07-09T11:53:27.482Z,3.00
2023-07-09T11:55:55.562Z,2.92
2023-07-09T11:58:23.473Z,2.70
2023-07-09T12:00:53.801Z,3.10
2023-07-09T12:03:25.454Z,3.03
2023-07-09T12:05:55.427Z,2.88
2023-07-09T12:08:29.296Z,2.88
2023-07-09T12:10:57.360Z,2.97
2023-07-09T12:13:25.585Z,2.65
2023-07-09T12:15:53.896Z,2.78
2023-07-09T12:18:22.242Z,2.83
2023-07-09T12:20:54.346Z,2.95
2023-07-09T12:23:28.040Z,3.13
2023-07-09T12:25:58.838Z,2.88
2023-07-09T12:28:28.583Z,3.10
2023-07-09T12:30:56.826Z,2.88
2023-07-09T12:33:26.401Z,2.92
2023-07-09T12:35:58.210Z,2.88
2023-07-09T12:38:29.586Z,2.75
2023-07-09T12:40:58.415Z,2.83
2023-07-09T12:43:29.862Z,2.90
2023-07-09T12:46:00.569Z,2.78
2023-07-09T12:48:31.645Z,2.70
2023-07-09T12:51:01.526Z,3.28
2023-07-09T12:53:31.584Z,3.38
2023-07-09T12:56:01.464Z,3.20
2023-07-09T12:58:32.265Z,3.22
2023-07-09T13:01:02.452Z,3.00
2023-07-09T13:03:33.425Z,3.25
2023-07-09T13:06:04.701Z,3.47
2023-07-09T13:08:42.191Z,3.42
2023-07-09T13:11:17.254Z,3.58
2023-07-09T13:13:56.497Z,3.05
2023-07-09T13:16:24.604Z,3.20
2023-07-09T13:18:52.834Z,2.85
2023-07-09T13:21:23.286Z,2.92
2023-07-09T13:23:54.977Z,3.05
2023-07-09T13:26:23.082Z,3.10
2023-07-09T13:28:52.283Z,3.05
2023-07-09T13:31:22.681Z,3.10
2023-07-09T13:33:55.060Z,3.20
2023-07-09T13:36:23.199Z,3.20
2023-07-09T13:38:52.760Z,3.13
2023-07-09T13:41:23.515Z,2.55
2023-07-09T13:43:51.958Z,2.78
2023-07-09T13:46:20.971Z,2.53
2023-07-09T13:48:51.255Z,2.85
2023-07-09T13:51:22.759Z,2.80
2023-07-09T13:53:53.986Z,2.50
2023-07-09T13:56:21.981Z,2.95
2023-07-09T13:58:50.483Z,2.90
2023-07-09T14:01:23.415Z,2.70
2023-07-09T14:03:51.520Z,3.03
2023-07-09T14:06:20.151Z,3.05
2023-07-09T14:08:48.079Z,2.30
2023-07-09T14:11:19.356Z,2.78
2023-07-09T14:13:48.598Z,2.58
2023-07-09T14:16:16.921Z,2.50
2023-07-09T14:18:44.926Z,3.13
2023-07-09T14:21:15.392Z,2.67
2023-07-09T14:23:43.564Z,2.75
2023-07-09T14:26:12.221Z,3.13
2023-07-09T14:28:41.722Z,2.75
2023-07-09T14:31:20.800Z,2.80
2023-07-09T14:33:48.780Z,2.67
2023-07-09T14:36:16.630Z,2.70
2023-07-09T14:38:44.424Z,2.40
2023-07-09T14:41:22.717Z,2.80
2023-07-09T14:43:52.210Z,2.88
2023-07-09T14:46:20.108Z,3.28
2023-07-09T14:48:48.037Z,2.83
2023-07-09T14:51:17.230Z,2.80
2023-07-09T14:53:45.105Z,3.58
2023-07-09T14:56:16.012Z,3.03
2023-07-09T14:58:43.878Z,3.25
2023-07-09T15:01:15.347Z,3.15
2023-07-09T15:03:43.450Z,2.90
2023-07-09T15:06:11.373Z,3.10
2023-07-09T15:08:39.256Z,2.38
2023-07-09T15:11:07.905Z,2.42
2023-07-09T15:13:37.740Z,2.80
2023-07-09T15:16:07.850Z,3.10
2023-07-09T15:18:37.775Z,2.70
2023-07-09T15:21:07.476Z,2.90
2023-07-09T15:23:41.674Z,3.05
2023-07-09T15:26:15.120Z,2.90
2023-07-09T15:28:43.050Z,3.15
2023-07-09T15:31:13.117Z,2.30
2023-07-09T15:33:42.870Z,2.70
2023-07-09T15:36:13.734Z,2.42
2023-07-09T15:38:43.119Z,2.75
2023-07-09T15:41:14.556Z,3.00
2023-07-09T15:43:44.188Z,2.65
2023-07-09T15:46:19.279Z,2.70
2023-07-09T15:48:49.944Z,2.80
2023-07-09T15:51:18.324Z,2.92
2023-07-09T15:53:46.419Z,3.00
2023-07-09T15:56:20.519Z,3.03
2023-07-09T15:58:52.388Z,2.67
2023-07-09T16:01:21.144Z,3.05
2023-07-09T16:03:53.724Z,2.70
2023-07-09T16:06:22.054Z,2.38
2023-07-09T16:08:50.973Z,2.70
2023-07-09T16:11:20.676Z,2.97
2023-07-09T16:13:49.375Z,3.10
2023-07-09T16:16:21.987Z,3.13
2023-07-09T16:18:52.654Z,3.10
2023-07-09T16:21:26.315Z,3.33
2023-07-09T16:23:55.153Z,2.75
2023-07-09T16:26:24.066Z,3.13
2023-07-09T16:28:55.311Z,3.58
2023-07-09T16:31:23.362Z,2.80
2023-07-09T16:33:53.307Z,2.75
2023-07-09T16:36:21.224Z,2.55
2023-07-09T16:38:49.333Z,3.17
2023-07-09T16:41:18.438Z,2.70
2023-07-09T16:43:46.818Z,2.75
2023-07-09T16:46:19.456Z,3.00
2023-07-09T16:48:48.613Z,2.53
2023-07-09T16:51:18.148Z,3.08
2023-07-09T16:53:46.209Z,2.90
2023-07-09T16:56:14.952Z,3.00
2023-07-09T16:58:43.163Z,3.28
2023-07-09T17:01:12.718Z,3.30
2023-07-09T17:03:40.817Z,2.90
2023-07-09T17:06:10.718Z,2.72
2023-07-09T17:08:40.194Z,2.65
2023-07-09T17:11:08.979Z,2.80
2023-07-09T17:13:37.048Z,2.97
2023-07-09T17:16:05.513Z,2.80
2023-07-09T17:18:34.762Z,3.00
2023-07-09T17:21:04.838Z,3.25
2023-07-09T17:23:33.750Z,2.92
2023-07-09T17:26:03.739Z,3.00
2023-07-09T17:28:33.953Z,2.70
2023-07-09T17:31:02.597Z,2.75
2023-07-09T17:33:31.041Z,3.20
2023-07-09T17:35:59.294Z,2.90
2023-07-09T17:38:32.678Z,3.17
2023-07-09T17:41:05.375Z,3.50
2023-07-09T17:43:33.281Z,2.55
2023-07-09T17:46:01.478Z,2.80
2023-07-09T17:48:32.138Z,2.90
2023-07-09T17:51:01.373Z,3.33
2023-07-09T17:53:33.264Z,3.22
2023-07-09T17:56:11.923Z,3.00
2023-07-09T17:58:42.545Z,2.85
2023-07-09T18:01:10.739Z,2.60
2023-07-09T18:03:39.053Z,3.13
2023-07-09T18:06:07.499Z,3.00
2023-07-09T18:08:35.577Z,2.72
2023-07-09T18:11:04.978Z,3.25
2023-07-09T18:13:33.328Z,2.53
2023-07-09T18:16:01.320Z,2.72
2023-07-09T18:18:29.182Z,2.90
2023-07-09T18:20:57.320Z,2.72
2023-07-09T18:23:26.667Z,3.10
2023-07-09T18:25:55.072Z,3.40
2023-07-09T18:28:30.951Z,3.10
2023-07-09T18:31:11.816Z,3.35
2023-07-09T18:33:44.672Z,2.83
2023-07-09T18:36:12.594Z,2.97
2023-07-09T18:38:40.504Z,3.25
2023-07-09T18:41:15.462Z,3.45
2023-07-09T18:43:45.893Z,3.45
2023-07-09T18:46:14.826Z,3.25
2023-07-09T18:48:42.810Z,3.05
2023-07-09T18:51:12.968Z,3.47
2023-07-09T18:53:41.050Z,3.28
2023-07-09T18:56:09.471Z,3.17
2023-07-09T18:58:39.583Z,3.05
2023-07-09T19:01:22.227Z,3.40
2023-07-09T19:03:50.515Z,3.30
2023-07-09T19:06:19.278Z,3.22
2023-07-09T19:08:47.244Z,3.72
2023-07-09T19:11:15.451Z,3.75
2023-07-09T19:13:43.669Z,3.25
2023-07-09T19:16:26.910Z,3.10
2023-07-09T19:18:55.060Z,3.40
2023-07-09T19:21:25.353Z,3.40
2023-07-09T19:23:53.402Z,2.85
2023-07-09T19:26:21.505Z,3.22
2023-07-09T19:28:49.360Z,3.42
2023-07-09T19:31:19.299Z,3.97
2023-07-09T19:33:47.911Z,3.10
2023-07-09T19:36:24.311Z,3.13
2023-07-09T19:38:53.585Z,3.72
2023-07-09T19:41:23.506Z,3.58
2023-07-09T19:43:51.851Z,3.25
2023-07-09T19:46:24.232Z,2.83
2023-07-09T19:48:52.153Z,2.72
2023-07-09T19:51:20.461Z,2.75
2023-07-09T19:53:48.634Z,2.33
2023-07-09T19:56:16.478Z,2.10
2023-07-09T19:58:44.470Z,1.48
2023-07-09T20:01:14.233Z,1.50
2023-07-09T20:03:44.312Z,1.35
2023-07-09T20:06:17.123Z,1.17
2023-07-09T20:08:47.163Z,1.20
2023-07-09T20:11:16.757Z,1.25
2023-07-09T20:13:45.002Z,1.10
2023-07-09T20:16:25.371Z,1.20
2023-07-09T20:18:55.754Z,1.35
2023-07-09T20:21:27.560Z,1.23
2023-07-09T20:23:59.320Z,1.20
2023-07-09T20:26:27.514Z,1.10
2023-07-09T20:28:55.397Z,1.40
2023-07-09T20:31:26.922Z,1.20
2023-07-09T20:34:04.590Z,1.60
2023-07-09T20:36:32.506Z,1.40
2023-07-09T20:39:00.753Z,1.67
2023-07-09T20:41:31.474Z,1.90
2023-07-09T20:43:59.482Z,1.30
2023-07-09T20:46:27.319Z,1.40
2023-07-09T20:48:55.313Z,1.48
2023-07-09T20:51:24.462Z,1.40
2023-07-09T20:53:52.813Z,1.60
2023-07-09T20:56:21.390Z,1.33
2023-07-09T20:58:50.297Z,1.30
2023-07-09T21:01:18.385Z,1.58
2023-07-09T21:03:47.990Z,1.63
2023-07-09T21:06:17.717Z,1.77
2023-07-09T21:08:46.913Z,1.95
2023-07-09T21:11:17.893Z,2.20
2023-07-09T21:13:45.849Z,1.83
2023-07-09T21:16:21.154Z,2.20
2023-07-09T21:18:49.098Z,1.80
2023-07-09T21:21:17.523Z,1.98
2023-07-09T21:23:46.796Z,1.80
2023-07-09T21:26:17.777Z,1.80
2023-07-09T21:28:45.733Z,1.75
2023-07-09T21:31:19.992Z,1.92
2023-07-09T21:33:48.242Z,2.10
2023-07-09T21:36:16.043Z,2.30
2023-07-09T21:38:43.838Z,2.10
2023-07-09T21:41:12.984Z,1.92
2023-07-09T21:43:40.735Z,2.22
2023-07-09T21:46:18.600Z,2.15
2023-07-09T21:48:46.387Z,2.25
2023-07-09T21:51:14.308Z,2.20
2023-07-09T21:56:15.672Z,2.40
2023-07-09T21:58:44.907Z,2.65
2023-07-09T22:01:16.767Z,2.38
2023-07-09T22:03:44.980Z,2.22
2023-07-09T22:06:13.956Z,2.10
2023-07-09T22:08:46.748Z,2.17
2023-07-09T22:11:27.040Z,2.53
2023-07-09T22:13:56.621Z,2.22
2023-07-09T22:16:27.587Z,3.05
2023-07-09T22:18:56.267Z,2.80
2023-07-09T22:21:24.178Z,2.42
2023-07-09T22:23:56.377Z,2.80
2023-07-09T22:26:27.276Z,3.03
2023-07-09T22:28:58.307Z,2.55
2023-07-09T22:31:26.304Z,3.05
2023-07-09T22:33:54.259Z,2.90
2023-07-09T22:36:22.713Z,2.70
2023-07-09T22:38:52.171Z,2.83
2023-07-09T22:41:20.553Z,2.70
2023-07-09T22:43:49.938Z,2.45
2023-07-09T22:46:19.399Z,2.72
2023-07-09T22:48:47.999Z,3.03
2023-07-09T22:51:16.629Z,2.78
2023-07-09T22:53:44.646Z,2.47
2023-07-09T22:56:15.241Z,3.03
2023-07-09T22:58:43.031Z,2.83
2023-07-09T23:01:19.744Z,2.85
2023-07-09T23:03:50.003Z,3.10
2023-07-09T23:06:23.415Z,2.70
2023-07-09T23:08:54.482Z,2.50
2023-07-09T23:11:25.716Z,2.70
2023-07-09T23:13:56.386Z,2.17
2023-07-09T23:16:29.265Z,2.85
2023-07-09T23:19:01.719Z,2.90
2023-07-09T23:21:36.950Z,2.90
2023-07-09T23:24:05.486Z,2.70
2023-07-09T23:26:33.724Z,2.80
2023-07-09T23:29:02.252Z,2.47
2023-07-09T23:31:33.341Z,2.90
2023-07-09T23:34:04.910Z,2.47
2023-07-09T23:36:33.287Z,2.88
2023-07-09T23:39:01.419Z,2.90
2023-07-09T23:41:31.796Z,2.50
2023-07-09T23:44:04.746Z,2.97
2023-07-09T23:46:36.949Z,2.95
2023-07-09T23:49:10.797Z,2.38
2023-07-09T23:51:39.992Z,2.47
2023-07-09T23:54:17.963Z,3.20
2023-07-09T23:56:48.591Z,2.47
2023-07-09T23:59:23.290Z,3.30
